Terminal Aerodrome Forecast
Issued by NWS

Home | Current Version | Previous Version | Text Only | Print | Product List | Glossary Off
Versions: 1 2 3 4 5 6 7 8 9 10 11 12 13 14 15 16 17 18 19 20 21 22 23 24 25 26 27 28 29 30 31 32 33 34 35 36 37 38 39 40 41 42 43 44 45 46 47 48 49

000
FTUS43 KLOT 140331 AAA
TAFGYY
TAF AMD
KGYY 140331Z 1404/1424 VRB03KT P6SM OVC200
     FM141400 14012G18KT P6SM OVC060
     FM141700 15015G20KT 2SM -SN BR OVC015
      TEMPO 1417/1420 1SM -SN BR OVC010
     FM142200 15015G20KT 5SM -SN BR OVC020=

USA.gov is the U.S. government's official web portal to all federal, state and local government web resources and services.